Time;durP1;ratioP1;P1;durP2;ratioP2;P2;SDS_P1;SDS_P2;PMS_P1;PMS_P2;Temp;Humidity;BMP_temperature;BMP_pressure;BME280_temperature;BME280_humidity;BME280_pressure;Samples;Min_cycle;Max_cycle;Signal;HPM_P1;HPM_P2
2023/08/18 00:02:06;;;;;;;;;;;24.40;89.80;;;;;;5094197;28;19908;-71
2023/08/18 00:04:32;;;;;;;;;;;24.40;89.80;;;;;;5094472;28;19919;-71
2023/08/18 00:06:57;;;;;;;;;;;24.40;89.80;;;;;;5094425;28;19963;-69
2023/08/18 00:09:24;;;;;;;;;;;24.40;89.80;;;;;;5094068;28;19908;-71
2023/08/18 00:11:50;;;;;;;;;;;24.40;89.80;;;;;;5094304;28;19937;-71
2023/08/18 00:14:15;;;;;;;;;;;24.40;89.80;;;;;;5093985;28;20275;-71
2023/08/18 00:16:41;;;;;;;;;;;24.40;89.80;;;;;;5093224;28;19955;-71
2023/08/18 00:19:06;;;;;;;;;;;24.40;89.80;;;;;;5094571;28;19950;-71
2023/08/18 00:21:32;;;;;;;;;;;24.40;89.80;;;;;;5093953;28;19908;-71
2023/08/18 00:23:57;;;;;;;;;;;24.40;89.80;;;;;;5093962;28;19915;-71
2023/08/18 00:26:23;;;;;;;;;;;24.40;89.80;;;;;;5094117;28;20003;-71
2023/08/18 00:28:48;;;;;;;;;;;24.40;89.80;;;;;;5094155;28;20412;-69
2023/08/18 00:31:14;;;;;;;;;;;24.40;89.80;;;;;;5094140;28;19914;-70
2023/08/18 00:33:39;;;;;;;;;;;24.40;89.80;;;;;;5094160;28;20358;-71
2023/08/18 00:36:05;;;;;;;;;;;24.40;89.80;;;;;;5094067;28;20270;-72
2023/08/18 00:38:30;;;;;;;;;;;24.40;89.80;;;;;;5094123;28;19999;-69
2023/08/18 00:40:56;;;;;;;;;;;24.40;89.80;;;;;;5093794;28;19997;-70
2023/08/18 00:43:22;;;;;;;;;;;24.40;89.80;;;;;;5093924;28;19924;-70
2023/08/18 00:45:48;;;;;;;;;;;24.40;89.80;;;;;;5093903;28;19920;-70
2023/08/18 00:48:13;;;;;;;;;;;24.40;89.80;;;;;;5093636;28;20371;-69
2023/08/18 00:50:39;;;;;;;;;;;24.40;89.80;;;;;;5094189;28;19962;-69
2023/08/18 00:53:04;;;;;;;;;;;24.40;89.80;;;;;;5093970;28;19999;-69
2023/08/18 00:55:30;;;;;;;;;;;24.40;89.80;;;;;;5094183;28;20355;-70
2023/08/18 00:57:57;;;;;;;;;;;24.40;89.80;;;;;;5093905;28;19912;-69
2023/08/18 01:00:23;;;;;;;;;;;24.40;89.80;;;;;;5093577;28;19913;-70
2023/08/18 01:02:52;;;;;;;;;;;24.40;89.80;;;;;;5093490;28;20002;-69
2023/08/18 01:05:18;;;;;;;;;;;24.40;89.80;;;;;;5093711;28;19923;-71
2023/08/18 01:07:44;;;;;;;;;;;24.40;89.80;;;;;;5093735;28;19908;-71
2023/08/18 01:10:09;;;;;;;;;;;24.40;89.80;;;;;;5093797;28;19908;-71
2023/08/18 01:12:35;;;;;;;;;;;24.40;89.80;;;;;;5093397;28;19908;-72
2023/08/18 01:15:03;;;;;;;;;;;24.40;89.80;;;;;;5093370;28;19912;-72
2023/08/18 01:17:36;;;;;;;;;;;24.40;89.80;;;;;;5093745;28;20357;-71
2023/08/18 01:20:03;;;;;;;;;;;24.40;89.80;;;;;;5093630;28;19909;-72
2023/08/18 01:22:30;;;;;;;;;;;24.40;89.80;;;;;;5093730;28;19915;-71
2023/08/18 01:25:00;;;;;;;;;;;24.30;89.70;;;;;;5093539;28;19955;-72
2023/08/18 01:27:25;;;;;;;;;;;24.30;89.70;;;;;;5093310;28;20275;-71
2023/08/18 01:29:51;;;;;;;;;;;24.40;89.80;;;;;;5096475;28;19912;-72
2023/08/18 01:32:17;;;;;;;;;;;24.30;89.70;;;;;;5096940;28;19912;-72
2023/08/18 01:34:43;;;;;;;;;;;24.40;89.80;;;;;;5097228;28;19912;-71
2023/08/18 01:37:09;;;;;;;;;;;24.30;89.70;;;;;;5097479;28;20362;-71
2023/08/18 01:39:35;;;;;;;;;;;24.30;89.80;;;;;;5097199;28;20270;-71
2023/08/18 01:42:01;;;;;;;;;;;24.30;89.70;;;;;;5097125;28;19928;-71
2023/08/18 01:44:27;;;;;;;;;;;24.30;89.70;;;;;;5096568;28;20359;-71
2023/08/18 01:46:52;;;;;;;;;;;24.30;89.70;;;;;;5096999;28;19957;-72
2023/08/18 01:49:18;;;;;;;;;;;24.30;89.70;;;;;;5096653;28;19961;-72
2023/08/18 01:51:43;;;;;;;;;;;24.30;89.80;;;;;;5096904;28;20243;-72
2023/08/18 01:54:09;;;;;;;;;;;24.30;89.70;;;;;;5096821;28;20377;-71
2023/08/18 01:56:34;;;;;;;;;;;24.30;89.70;;;;;;5096800;28;19908;-71
2023/08/18 01:59:01;;;;;;;;;;;24.30;89.70;;;;;;5096757;28;20406;-71
2023/08/18 02:01:26;;;;;;;;;;;24.30;89.70;;;;;;5095430;28;19979;-71
2023/08/18 02:03:52;;;;;;;;;;;24.40;89.80;;;;;;5095307;28;19912;-71
2023/08/18 02:06:18;;;;;;;;;;;24.30;89.70;;;;;;5096593;28;19919;-71
2023/08/18 02:08:44;;;;;;;;;;;24.30;89.70;;;;;;5096573;28;19908;-72
2023/08/18 02:11:09;;;;;;;;;;;24.30;89.70;;;;;;5096433;28;19908;-71
2023/08/18 02:13:35;;;;;;;;;;;24.30;89.70;;;;;;5096485;28;19942;-71
2023/08/18 02:16:00;;;;;;;;;;;24.30;89.70;;;;;;5096526;28;19927;-70
2023/08/18 02:18:26;;;;;;;;;;;24.30;89.70;;;;;;5096588;28;19953;-70
2023/08/18 02:20:55;;;;;;;;;;;24.30;89.80;;;;;;5096432;28;20236;-70
2023/08/18 02:23:21;;;;;;;;;;;24.30;89.70;;;;;;5096285;28;19955;-72
2023/08/18 02:25:46;;;;;;;;;;;24.30;89.80;;;;;;5096034;28;20378;-73
2023/08/18 02:28:12;;;;;;;;;;;24.30;89.80;;;;;;5095961;28;20278;-72
2023/08/18 02:30:37;;;;;;;;;;;24.30;89.80;;;;;;5094760;28;19967;-73
2023/08/18 02:33:03;;;;;;;;;;;24.30;89.70;;;;;;5096192;28;19908;-72
2023/08/18 02:35:28;;;;;;;;;;;24.30;89.80;;;;;;5096150;28;20270;-71
2023/08/18 02:37:54;;;;;;;;;;;24.30;89.80;;;;;;5096065;28;19908;-72
2023/08/18 02:40:19;;;;;;;;;;;24.30;89.80;;;;;;5093788;28;20351;-72
2023/08/18 02:42:45;;;;;;;;;;;24.30;89.80;;;;;;5095985;28;20308;-71
2023/08/18 02:45:10;;;;;;;;;;;24.30;89.80;;;;;;5095676;28;19920;-70
2023/08/18 02:47:38;;;;;;;;;;;24.30;89.70;;;;;;5096088;28;19908;-72
2023/08/18 02:50:05;;;;;;;;;;;24.30;89.80;;;;;;5096078;28;20010;-71
2023/08/18 02:52:30;;;;;;;;;;;24.30;89.80;;;;;;5095668;28;19953;-71
2023/08/18 02:54:56;;;;;;;;;;;24.30;89.80;;;;;;5095449;28;19908;-71
2023/08/18 02:57:21;;;;;;;;;;;24.30;89.80;;;;;;5095399;28;19925;-71
2023/08/18 02:59:47;;;;;;;;;;;24.30;89.80;;;;;;5095586;28;19931;-70
2023/08/18 03:02:12;;;;;;;;;;;24.30;89.80;;;;;;5095641;28;20371;-71
2023/08/18 03:04:38;;;;;;;;;;;24.30;89.80;;;;;;5095358;28;19912;-70
2023/08/18 03:07:03;;;;;;;;;;;24.30;89.80;;;;;;5095442;28;19919;-70
2023/08/18 03:09:29;;;;;;;;;;;24.30;89.80;;;;;;5095557;28;19944;-71
2023/08/18 03:11:54;;;;;;;;;;;24.30;89.90;;;;;;5095329;28;20298;-71
2023/08/18 03:14:19;;;;;;;;;;;24.30;89.80;;;;;;5095011;28;19908;-71
2023/08/18 03:16:45;;;;;;;;;;;24.30;89.80;;;;;;5095227;28;19908;-71
2023/08/18 03:19:11;;;;;;;;;;;24.30;89.90;;;;;;5095222;28;20316;-71
2023/08/18 03:21:36;;;;;;;;;;;24.30;89.90;;;;;;5095227;28;19909;-71
2023/08/18 03:24:02;;;;;;;;;;;24.30;89.90;;;;;;5095120;28;19912;-70
2023/08/18 03:26:28;;;;;;;;;;;24.30;89.90;;;;;;5095216;28;19912;-71
2023/08/18 03:28:56;;;;;;;;;;;24.30;89.90;;;;;;5095045;28;19916;-71
2023/08/18 03:31:22;;;;;;;;;;;24.20;89.80;;;;;;5093678;28;19913;-71
2023/08/18 03:33:47;;;;;;;;;;;24.30;89.90;;;;;;5094823;28;19908;-71
2023/08/18 03:36:12;;;;;;;;;;;24.20;89.80;;;;;;5094844;28;19908;-71
2023/08/18 03:38:38;;;;;;;;;;;24.30;89.90;;;;;;5094653;28;19993;-71
2023/08/18 03:41:04;;;;;;;;;;;24.20;89.90;;;;;;5094577;28;19931;-71
2023/08/18 03:43:31;;;;;;;;;;;24.20;89.90;;;;;;5094772;28;20018;-71
2023/08/18 03:46:01;;;;;;;;;;;24.20;89.90;;;;;;5093306;28;19920;-71
2023/08/18 03:48:27;;;;;;;;;;;24.20;89.90;;;;;;5094742;28;19908;-71
2023/08/18 03:50:52;;;;;;;;;;;24.20;89.90;;;;;;5094247;28;19961;-71
2023/08/18 03:53:21;;;;;;;;;;;24.20;89.90;;;;;;5094251;28;19912;-71
2023/08/18 03:55:51;;;;;;;;;;;24.20;89.90;;;;;;5094315;28;20342;-71
2023/08/18 03:58:17;;;;;;;;;;;24.20;89.90;;;;;;5094442;28;19909;-70
2023/08/18 04:00:42;;;;;;;;;;;24.20;90.20;;;;;;5094537;28;19908;-71
2023/08/18 04:03:08;;;;;;;;;;;24.20;89.90;;;;;;5094362;28;19948;-71
2023/08/18 04:05:33;;;;;;;;;;;24.20;89.90;;;;;;5094201;28;19916;-71
2023/08/18 04:07:59;;;;;;;;;;;24.20;89.90;;;;;;5094473;28;19909;-71
2023/08/18 04:10:24;;;;;;;;;;;24.20;90.00;;;;;;5094415;28;19908;-72
2023/08/18 04:12:49;;;;;;;;;;;24.20;89.90;;;;;;5094384;28;19908;-71
2023/08/18 04:15:15;;;;;;;;;;;24.20;89.90;;;;;;5094242;28;19931;-71
2023/08/18 04:17:40;;;;;;;;;;;24.20;89.90;;;;;;5094288;28;20007;-71
2023/08/18 04:20:08;;;;;;;;;;;24.20;89.90;;;;;;5092483;28;20010;-71
2023/08/18 04:22:34;;;;;;;;;;;24.20;90.00;;;;;;5094061;28;19999;-71
2023/08/18 04:25:00;;;;;;;;;;;24.20;90.00;;;;;;5094247;28;20015;-71
2023/08/18 04:27:25;;;;;;;;;;;24.20;89.90;;;;;;5094229;28;19994;-71
2023/08/18 04:29:51;;;;;;;;;;;24.20;90.00;;;;;;5094153;28;19919;-71
2023/08/18 04:32:16;;;;;;;;;;;24.20;90.00;;;;;;5094055;28;19914;-71
2023/08/18 04:34:42;;;;;;;;;;;24.20;90.00;;;;;;5093956;28;19908;-71
2023/08/18 04:37:07;;;;;;;;;;;24.20;90.00;;;;;;5093742;28;19962;-70
2023/08/18 04:39:33;;;;;;;;;;;24.20;90.00;;;;;;5092915;28;19908;-70
2023/08/18 04:41:58;;;;;;;;;;;24.20;90.00;;;;;;5094069;28;20365;-71
2023/08/18 04:44:24;;;;;;;;;;;24.20;90.00;;;;;;5093613;28;20076;-71
2023/08/18 04:46:49;;;;;;;;;;;24.20;90.00;;;;;;5093798;28;20371;-71
2023/08/18 04:49:14;;;;;;;;;;;24.20;90.00;;;;;;5093691;28;20370;-71
2023/08/18 04:51:41;;;;;;;;;;;24.20;90.00;;;;;;5093917;28;19909;-71
2023/08/18 04:54:07;;;;;;;;;;;24.20;90.00;;;;;;5093923;28;19908;-71
2023/08/18 04:56:34;;;;;;;;;;;24.20;90.00;;;;;;5093216;28;20431;-70
2023/08/18 04:58:59;;;;;;;;;;;24.20;90.00;;;;;;5092819;28;19962;-71
2023/08/18 05:01:25;;;;;;;;;;;24.20;90.00;;;;;;5093540;28;20351;-71
2023/08/18 05:03:50;;;;;;;;;;;24.20;90.00;;;;;;5095573;28;19912;-71
2023/08/18 05:06:16;;;;;;;;;;;24.20;90.00;;;;;;5096078;28;19998;-71
2023/08/18 05:08:41;;;;;;;;;;;24.20;90.00;;;;;;5097612;28;19912;-71
2023/08/18 05:11:08;;;;;;;;;;;24.20;90.00;;;;;;5097441;28;19916;-71
2023/08/18 05:13:34;;;;;;;;;;;24.20;90.00;;;;;;5097335;28;19908;-70
2023/08/18 05:16:00;;;;;;;;;;;24.20;90.00;;;;;;5097557;28;19908;-71
2023/08/18 05:18:25;;;;;;;;;;;24.20;90.00;;;;;;5097445;28;19915;-71
2023/08/18 05:20:51;;;;;;;;;;;24.20;90.00;;;;;;5097496;28;19912;-71
2023/08/18 05:23:17;;;;;;;;;;;24.20;90.00;;;;;;5097356;28;19908;-71
2023/08/18 05:25:47;;;;;;;;;;;24.20;90.00;;;;;;5097446;28;20006;-71
2023/08/18 05:28:13;;;;;;;;;;;24.20;90.10;;;;;;5097039;28;20383;-70
2023/08/18 05:30:39;;;;;;;;;;;24.20;90.10;;;;;;5096976;28;19943;-70
2023/08/18 05:33:04;;;;;;;;;;;24.20;90.10;;;;;;5097300;28;20351;-70
2023/08/18 05:35:31;;;;;;;;;;;24.20;90.10;;;;;;5096708;28;19999;-71
2023/08/18 05:37:56;;;;;;;;;;;24.20;90.30;;;;;;5097010;28;19915;-71
2023/08/18 05:40:22;;;;;;;;;;;24.20;90.10;;;;;;5096977;28;20359;-70
2023/08/18 05:42:47;;;;;;;;;;;24.20;90.10;;;;;;5097327;28;19916;-71
2023/08/18 05:45:14;;;;;;;;;;;24.20;90.10;;;;;;5096420;28;19968;-71
2023/08/18 05:47:39;;;;;;;;;;;24.20;90.10;;;;;;5096970;28;20274;-71
2023/08/18 05:50:05;;;;;;;;;;;24.20;90.30;;;;;;5097021;28;19912;-69
2023/08/18 05:52:31;;;;;;;;;;;24.20;90.10;;;;;;5096593;28;20438;-71
2023/08/18 05:54:56;;;;;;;;;;;24.10;90.00;;;;;;5096733;28;19915;-71
2023/08/18 05:57:22;;;;;;;;;;;24.20;90.10;;;;;;5096578;28;20351;-70
2023/08/18 05:59:47;;;;;;;;;;;24.20;90.10;;;;;;5096634;28;20415;-70
2023/08/18 06:02:13;;;;;;;;;;;24.20;90.10;;;;;;5096887;28;19909;-71
2023/08/18 06:04:38;;;;;;;;;;;24.10;90.00;;;;;;5096295;28;19912;-70
2023/08/18 06:07:04;;;;;;;;;;;24.20;90.10;;;;;;5096372;28;20362;-70
2023/08/18 06:09:29;;;;;;;;;;;24.10;90.00;;;;;;5096598;28;19943;-70
2023/08/18 06:11:54;;;;;;;;;;;24.20;90.10;;;;;;5096421;28;19908;-70
2023/08/18 06:14:20;;;;;;;;;;;24.10;90.10;;;;;;5095449;28;19914;-70
2023/08/18 06:16:45;;;;;;;;;;;24.10;90.10;;;;;;5095882;28;20266;-70
2023/08/18 06:19:12;;;;;;;;;;;24.10;90.10;;;;;;5096428;28;19919;-71
2023/08/18 06:21:37;;;;;;;;;;;24.10;90.10;;;;;;5096000;28;19912;-70
2023/08/18 06:24:03;;;;;;;;;;;24.10;90.10;;;;;;5096168;28;19912;-70
2023/08/18 06:26:28;;;;;;;;;;;24.10;90.10;;;;;;5095734;28;20359;-70
2023/08/18 06:28:54;;;;;;;;;;;24.10;90.10;;;;;;5096051;28;20283;-71
2023/08/18 06:31:19;;;;;;;;;;;24.10;90.10;;;;;;5095644;28;20048;-71
2023/08/18 06:33:45;;;;;;;;;;;24.10;90.10;;;;;;5095859;28;19908;-70
2023/08/18 06:36:11;;;;;;;;;;;24.10;90.10;;;;;;5095511;28;20325;-70
2023/08/18 06:38:36;;;;;;;;;;;24.10;90.10;;;;;;5095869;28;19955;-71
2023/08/18 06:41:02;;;;;;;;;;;24.10;90.10;;;;;;5095856;28;20413;-71
2023/08/18 06:43:27;;;;;;;;;;;24.10;90.10;;;;;;5095630;28;19922;-71
2023/08/18 06:45:52;;;;;;;;;;;24.10;90.10;;;;;;5095805;28;19924;-71
2023/08/18 06:48:18;;;;;;;;;;;24.10;90.10;;;;;;5095429;28;20324;-71
2023/08/18 06:50:44;;;;;;;;;;;24.10;90.10;;;;;;5095684;28;19908;-71
2023/08/18 06:53:09;;;;;;;;;;;24.10;90.10;;;;;;5095355;28;19912;-71
2023/08/18 06:55:35;;;;;;;;;;;24.10;90.10;;;;;;5095485;28;19943;-71
2023/08/18 06:58:00;;;;;;;;;;;24.10;90.10;;;;;;5095474;28;19908;-71
2023/08/18 07:00:26;;;;;;;;;;;24.10;90.10;;;;;;5095081;28;19908;-71
2023/08/18 07:02:51;;;;;;;;;;;24.10;90.10;;;;;;5095278;28;20300;-71
2023/08/18 07:05:17;;;;;;;;;;;24.10;90.10;;;;;;5094952;28;19916;-71
2023/08/18 07:07:43;;;;;;;;;;;24.10;90.10;;;;;;5095080;28;20002;-71
2023/08/18 07:10:09;;;;;;;;;;;24.10;90.20;;;;;;5094878;28;19915;-71
2023/08/18 07:12:34;;;;;;;;;;;24.10;90.20;;;;;;5095012;28;20255;-71
2023/08/18 07:15:00;;;;;;;;;;;24.10;90.20;;;;;;5095490;28;20007;-71
2023/08/18 07:17:25;;;;;;;;;;;24.10;90.20;;;;;;5095076;28;19915;-71
2023/08/18 07:19:51;;;;;;;;;;;24.10;90.20;;;;;;5095065;28;19912;-71
2023/08/18 07:22:16;;;;;;;;;;;24.10;90.20;;;;;;5095114;28;19930;-71
2023/08/18 07:24:42;;;;;;;;;;;24.10;90.20;;;;;;5094914;28;19916;-70
2023/08/18 07:27:07;;;;;;;;;;;24.10;90.20;;;;;;5094318;28;20402;-70
2023/08/18 07:29:35;;;;;;;;;;;24.10;90.20;;;;;;5095042;28;19962;-71
2023/08/18 07:32:01;;;;;;;;;;;24.10;90.20;;;;;;5094831;28;20011;-71
2023/08/18 07:34:26;;;;;;;;;;;24.10;90.20;;;;;;5094557;28;19966;-70
2023/08/18 07:36:52;;;;;;;;;;;24.10;90.20;;;;;;5094384;28;19931;-70
2023/08/18 07:39:18;;;;;;;;;;;24.10;90.20;;;;;;5094583;28;19912;-70
2023/08/18 07:41:44;;;;;;;;;;;24.10;90.20;;;;;;5094701;28;19916;-70
2023/08/18 07:44:10;;;;;;;;;;;24.10;90.20;;;;;;5094268;28;19916;-69
2023/08/18 07:46:35;;;;;;;;;;;24.10;90.20;;;;;;5093910;28;19986;-70
2023/08/18 07:49:01;;;;;;;;;;;24.10;90.20;;;;;;5094836;28;19912;-70
2023/08/18 07:51:27;;;;;;;;;;;24.10;90.20;;;;;;5094163;28;19908;-71
2023/08/18 07:53:53;;;;;;;;;;;24.10;90.20;;;;;;5094420;28;19908;-70
2023/08/18 07:56:18;;;;;;;;;;;24.10;90.20;;;;;;5093910;28;19951;-71
2023/08/18 07:58:44;;;;;;;;;;;24.10;90.20;;;;;;5094387;28;20037;-70
2023/08/18 08:01:09;;;;;;;;;;;24.10;90.20;;;;;;5094437;28;19912;-70
2023/08/18 08:03:35;;;;;;;;;;;24.10;90.20;;;;;;5094311;28;20023;-70
2023/08/18 08:06:02;;;;;;;;;;;24.10;90.20;;;;;;5094100;28;20351;-70
2023/08/18 08:08:28;;;;;;;;;;;24.10;90.20;;;;;;5094144;28;19915;-70
2023/08/18 08:10:53;;;;;;;;;;;24.10;90.20;;;;;;5093307;28;19908;-70
2023/08/18 08:13:18;;;;;;;;;;;24.10;90.20;;;;;;5094235;28;20343;-70
2023/08/18 08:15:45;;;;;;;;;;;24.10;90.20;;;;;;5094138;28;19908;-70
2023/08/18 08:18:15;;;;;;;;;;;24.10;90.20;;;;;;5093835;28;19908;-70
2023/08/18 08:20:41;;;;;;;;;;;24.10;90.20;;;;;;5094119;28;20271;-70
2023/08/18 08:23:07;;;;;;;;;;;24.10;90.30;;;;;;5093889;28;19908;-70
2023/08/18 08:25:33;;;;;;;;;;;24.10;90.20;;;;;;5093858;28;19916;-70
2023/08/18 08:27:58;;;;;;;;;;;24.10;90.30;;;;;;5094002;28;20256;-70
2023/08/18 08:30:24;;;;;;;;;;;24.00;90.20;;;;;;5093048;28;19923;-71
2023/08/18 08:32:49;;;;;;;;;;;24.10;90.30;;;;;;5093720;28;19915;-71
2023/08/18 08:35:15;;;;;;;;;;;24.10;90.30;;;;;;5093937;28;20087;-70
2023/08/18 08:37:41;;;;;;;;;;;24.10;90.30;;;;;;5093814;28;19908;-70
2023/08/18 08:40:10;;;;;;;;;;;24.00;90.20;;;;;;5098364;28;19920;-70
2023/08/18 08:42:35;;;;;;;;;;;24.10;90.30;;;;;;5097682;28;19908;-70
2023/08/18 08:45:01;;;;;;;;;;;24.10;90.30;;;;;;5097385;28;20417;-71
2023/08/18 08:47:26;;;;;;;;;;;24.10;90.30;;;;;;5097629;28;19915;-69
2023/08/18 08:49:56;;;;;;;;;;;24.10;90.30;;;;;;5097522;28;20412;-70
2023/08/18 08:52:23;;;;;;;;;;;24.00;90.30;;;;;;5097652;28;20381;-71
2023/08/18 08:54:58;;;;;;;;;;;24.10;90.30;;;;;;5097724;28;19922;-70
2023/08/18 08:57:23;;;;;;;;;;;24.00;90.30;;;;;;5097547;28;20408;-70
2023/08/18 08:59:49;;;;;;;;;;;24.00;90.30;;;;;;5097558;28;19912;-71
2023/08/18 09:02:14;;;;;;;;;;;24.00;90.30;;;;;;5097504;28;19908;-71
2023/08/18 09:04:40;;;;;;;;;;;24.00;90.30;;;;;;5097486;28;20346;-69
2023/08/18 09:07:07;;;;;;;;;;;24.00;90.30;;;;;;5097426;28;19923;-71
2023/08/18 09:09:33;;;;;;;;;;;24.00;90.30;;;;;;5097914;28;20312;-71
2023/08/18 09:12:05;;;;;;;;;;;24.00;90.30;;;;;;5097683;28;19912;-71
2023/08/18 09:14:32;;;;;;;;;;;24.00;90.30;;;;;;5097559;28;19915;-71
2023/08/18 09:16:58;;;;;;;;;;;24.00;90.30;;;;;;5097333;28;20286;-70
2023/08/18 09:19:25;;;;;;;;;;;24.00;90.30;;;;;;5097353;28;19908;-70
2023/08/18 09:21:50;;;;;;;;;;;24.00;90.30;;;;;;5097089;28;19941;-71
2023/08/18 09:24:19;;;;;;;;;;;24.00;90.30;;;;;;5097408;28;20010;-71
2023/08/18 09:26:44;;;;;;;;;;;24.00;90.30;;;;;;5097158;28;20003;-72
2023/08/18 09:29:10;;;;;;;;;;;24.00;90.30;;;;;;5097285;28;19997;-71
2023/08/18 09:31:35;;;;;;;;;;;24.00;90.30;;;;;;5097101;28;19915;-71
2023/08/18 09:34:02;;;;;;;;;;;24.00;90.30;;;;;;5096969;28;19912;-71
2023/08/18 09:36:30;;;;;;;;;;;24.00;90.30;;;;;;5097003;28;20050;-71
2023/08/18 09:38:56;;;;;;;;;;;24.00;90.30;;;;;;5096922;28;20286;-71
2023/08/18 09:41:21;;;;;;;;;;;24.00;90.30;;;;;;5097009;28;19912;-71
2023/08/18 09:43:48;;;;;;;;;;;24.00;90.30;;;;;;5096732;28;19912;-71
2023/08/18 09:46:16;;;;;;;;;;;24.00;90.30;;;;;;5096903;28;19993;-70
2023/08/18 09:48:44;;;;;;;;;;;24.00;90.30;;;;;;5096835;28;19908;-71
2023/08/18 09:51:11;;;;;;;;;;;24.00;90.30;;;;;;5096852;28;19908;-70
2023/08/18 09:53:39;;;;;;;;;;;24.00;90.30;;;;;;5096811;28;19909;-71
2023/08/18 09:56:25;;;;;;;;;;;24.00;90.30;;;;;;5096780;28;20336;-71
2023/08/18 09:58:51;;;;;;;;;;;24.00;90.30;;;;;;5096663;28;20348;-71
2023/08/18 10:01:17;;;;;;;;;;;24.00;90.30;;;;;;5096487;28;20002;-70
2023/08/18 10:03:46;;;;;;;;;;;24.00;90.40;;;;;;5096204;28;19916;-71
2023/08/18 10:06:12;;;;;;;;;;;24.00;90.40;;;;;;5096284;28;20340;-70
2023/08/18 10:08:38;;;;;;;;;;;24.00;90.30;;;;;;5096121;28;19948;-71
2023/08/18 10:11:04;;;;;;;;;;;24.00;90.40;;;;;;5095051;28;19947;-71
2023/08/18 10:13:31;;;;;;;;;;;24.00;90.40;;;;;;5096790;28;19922;-71
2023/08/18 10:15:57;;;;;;;;;;;24.00;90.40;;;;;;5096338;28;19915;-71
2023/08/18 10:18:23;;;;;;;;;;;24.00;90.40;;;;;;5096343;28;19908;-71
2023/08/18 10:20:49;;;;;;;;;;;24.00;90.40;;;;;;5095910;28;20270;-70
2023/08/18 10:23:16;;;;;;;;;;;24.00;90.40;;;;;;5095792;28;19916;-71
2023/08/18 10:25:43;;;;;;;;;;;24.00;90.40;;;;;;5095803;28;19985;-70
2023/08/18 10:28:08;;;;;;;;;;;24.00;90.40;;;;;;5095939;28;19984;-72
2023/08/18 10:30:34;;;;;;;;;;;24.00;90.40;;;;;;5095573;28;19941;-73
2023/08/18 10:33:04;;;;;;;;;;;24.00;90.40;;;;;;5095940;28;19916;-72
2023/08/18 10:35:30;;;;;;;;;;;24.00;90.40;;;;;;5095617;28;19908;-72
2023/08/18 10:37:57;;;;;;;;;;;24.00;90.40;;;;;;5095565;28;19930;-73
2023/08/18 10:40:23;;;;;;;;;;;24.00;90.40;;;;;;5095596;28;20339;-73
2023/08/18 10:42:53;;;;;;;;;;;24.00;90.40;;;;;;5095811;28;20055;-72
2023/08/18 10:45:26;;;;;;;;;;;24.00;90.40;;;;;;5095294;28;20256;-72
2023/08/18 10:47:52;;;;;;;;;;;24.00;90.40;;;;;;5095517;28;19935;-73
2023/08/18 10:50:19;;;;;;;;;;;24.00;90.40;;;;;;5095428;28;20274;-73
2023/08/18 10:52:44;;;;;;;;;;;24.00;90.40;;;;;;5095169;28;20381;-72
2023/08/18 10:55:10;;;;;;;;;;;24.00;90.40;;;;;;5095430;28;19990;-70
2023/08/18 10:57:37;;;;;;;;;;;24.00;90.40;;;;;;5095453;28;19908;-72
2023/08/18 11:00:05;;;;;;;;;;;24.00;90.40;;;;;;5095069;28;19958;-72
2023/08/18 11:02:31;;;;;;;;;;;24.00;90.40;;;;;;5094246;28;19934;-71
2023/08/18 11:04:57;;;;;;;;;;;24.00;90.40;;;;;;5095270;28;19912;-72
2023/08/18 11:07:24;;;;;;;;;;;24.00;90.40;;;;;;5095335;28;20010;-72
2023/08/18 11:09:50;;;;;;;;;;;24.00;90.40;;;;;;5095071;28;20310;-71
2023/08/18 11:12:15;;;;;;;;;;;24.00;90.40;;;;;;5095086;28;19955;-70
2023/08/18 11:14:41;;;;;;;;;;;24.00;90.50;;;;;;5095085;28;20299;-70
2023/08/18 11:17:06;;;;;;;;;;;24.00;90.40;;;;;;5094808;28;19934;-71
2023/08/18 11:19:32;;;;;;;;;;;24.00;90.40;;;;;;5093841;28;19916;-69
2023/08/18 11:21:57;;;;;;;;;;;24.00;90.40;;;;;;5094941;28;20329;-71
2023/08/18 11:24:24;;;;;;;;;;;24.00;90.40;;;;;;5094984;28;19919;-69
2023/08/18 11:26:50;;;;;;;;;;;24.00;90.40;;;;;;5094501;28;19916;-70
2023/08/18 11:29:15;;;;;;;;;;;24.00;90.40;;;;;;5094607;28;19912;-71
2023/08/18 11:31:45;;;;;;;;;;;24.00;90.40;;;;;;5094883;28;19977;-69
2023/08/18 11:34:10;;;;;;;;;;;24.00;90.40;;;;;;5094674;28;19914;-72
2023/08/18 11:36:36;;;;;;;;;;;23.90;90.40;;;;;;5094957;28;19987;-70
2023/08/18 11:39:07;;;;;;;;;;;24.00;90.40;;;;;;5093284;28;20415;-70
2023/08/18 11:41:39;;;;;;;;;;;24.00;90.40;;;;;;5094638;28;19933;-71
2023/08/18 11:44:07;;;;;;;;;;;24.00;90.40;;;;;;5094380;28;19912;-70
2023/08/18 11:46:36;;;;;;;;;;;24.00;90.50;;;;;;5094719;28;20263;-71
2023/08/18 11:49:03;;;;;;;;;;;23.90;90.40;;;;;;5094521;28;19913;-70
2023/08/18 11:51:29;;;;;;;;;;;23.90;90.50;;;;;;5094336;28;19908;-71
2023/08/18 11:53:55;;;;;;;;;;;23.90;90.40;;;;;;5094795;28;19920;-70
2023/08/18 11:56:23;;;;;;;;;;;23.90;90.50;;;;;;5094132;28;20267;-70
2023/08/18 11:58:49;;;;;;;;;;;24.00;90.50;;;;;;5094105;28;20305;-71
2023/08/18 12:01:14;;;;;;;;;;;23.90;90.50;;;;;;5094056;28;19908;-70
2023/08/18 12:03:40;;;;;;;;;;;24.00;90.50;;;;;;5094362;28;20393;-72
2023/08/18 12:06:05;;;;;;;;;;;23.90;90.50;;;;;;5093957;28;19912;-72
2023/08/18 12:08:31;;;;;;;;;;;23.90;90.50;;;;;;5094112;28;19916;-72
2023/08/18 12:10:57;;;;;;;;;;;24.00;90.50;;;;;;5094529;28;19915;-71
2023/08/18 12:13:24;;;;;;;;;;;24.00;90.50;;;;;;5094162;28;19908;-71
2023/08/18 12:15:49;;;;;;;;;;;23.90;90.50;;;;;;5094192;28;19908;-69
2023/08/18 12:18:15;;;;;;;;;;;23.90;90.50;;;;;;5094157;28;19908;-69
2023/08/18 12:20:41;;;;;;;;;;;23.90;90.50;;;;;;5094002;28;19961;-72
2023/08/18 12:23:07;;;;;;;;;;;23.90;90.50;;;;;;5094038;28;19915;-71
2023/08/18 12:25:32;;;;;;;;;;;23.90;90.50;;;;;;5093693;28;19916;-72
2023/08/18 12:27:58;;;;;;;;;;;23.90;90.50;;;;;;5093851;28;19946;-73
2023/08/18 12:30:25;;;;;;;;;;;23.90;90.50;;;;;;5093872;28;19947;-72
2023/08/18 12:32:51;;;;;;;;;;;23.90;90.50;;;;;;5094121;28;20009;-71
2023/08/18 12:35:17;;;;;;;;;;;23.90;90.50;;;;;;5094129;28;20351;-71
2023/08/18 12:37:42;;;;;;;;;;;23.90;90.50;;;;;;5093814;28;19908;-67
2023/08/18 12:40:10;;;;;;;;;;;23.90;90.50;;;;;;5093947;28;19908;-72
2023/08/18 12:42:39;;;;;;;;;;;23.90;90.50;;;;;;5094001;28;19908;-71
2023/08/18 12:45:05;;;;;;;;;;;23.90;90.50;;;;;;5092027;28;20007;-71
2023/08/18 12:47:30;;;;;;;;;;;23.90;90.50;;;;;;5093489;28;19938;-71
2023/08/18 12:49:56;;;;;;;;;;;23.90;90.50;;;;;;5093801;28;19908;-72
2023/08/18 12:52:22;;;;;;;;;;;23.90;90.50;;;;;;5093812;28;19916;-72
2023/08/18 12:54:48;;;;;;;;;;;23.90;90.50;;;;;;5093847;28;19995;-73
2023/08/18 12:57:14;;;;;;;;;;;23.90;90.50;;;;;;5093793;28;19955;-72
2023/08/18 12:59:39;;;;;;;;;;;23.90;90.50;;;;;;5093674;28;19908;-71
2023/08/18 13:02:05;;;;;;;;;;;23.90;90.50;;;;;;5093386;28;20343;-72
2023/08/18 13:04:31;;;;;;;;;;;23.90;90.50;;;;;;5093616;28;19966;-73
2023/08/18 13:06:56;;;;;;;;;;;23.90;90.50;;;;;;5093516;28;20302;-71
2023/08/18 13:09:23;;;;;;;;;;;23.90;90.50;;;;;;5093532;28;19927;-73
2023/08/18 13:11:48;;;;;;;;;;;23.90;90.50;;;;;;5093480;28;19909;-73
2023/08/18 13:14:14;;;;;;;;;;;23.90;90.50;;;;;;5093209;28;19915;-73
2023/08/18 13:16:41;;;;;;;;;;;24.00;90.60;;;;;;5093489;28;19908;-73
2023/08/18 13:19:09;;;;;;;;;;;23.90;90.50;;;;;;5093573;28;19912;-72
2023/08/18 13:21:35;;;;;;;;;;;23.90;90.50;;;;;;5093310;28;19908;-71
2023/08/18 13:24:00;;;;;;;;;;;23.90;90.50;;;;;;5093673;28;19912;-73
2023/08/18 13:26:26;;;;;;;;;;;23.90;90.50;;;;;;5097294;28;20282;-73
2023/08/18 13:28:51;;;;;;;;;;;23.90;90.50;;;;;;5097204;28;19919;-71
2023/08/18 13:31:18;;;;;;;;;;;23.90;90.60;;;;;;5097097;28;19915;-71
2023/08/18 13:33:44;;;;;;;;;;;23.90;90.50;;;;;;5096948;28;19916;-68
2023/08/18 13:36:09;;;;;;;;;;;23.90;90.60;;;;;;5096740;28;19916;-72
2023/08/18 13:38:35;;;;;;;;;;;23.90;90.60;;;;;;5096928;28;20335;-72
2023/08/18 13:41:00;;;;;;;;;;;23.90;90.50;;;;;;5096941;28;19908;-73
2023/08/18 13:43:25;;;;;;;;;;;23.90;90.60;;;;;;5096441;28;20000;-71
2023/08/18 13:45:51;;;;;;;;;;;23.90;90.60;;;;;;5096737;28;19930;-72
2023/08/18 13:48:16;;;;;;;;;;;23.90;90.60;;;;;;5096619;28;20244;-70
2023/08/18 13:50:42;;;;;;;;;;;24.00;90.60;;;;;;5096654;28;19909;-71
2023/08/18 13:53:11;;;;;;;;;;;23.90;90.60;;;;;;5096782;28;20278;-72
2023/08/18 13:55:43;;;;;;;;;;;23.90;90.60;;;;;;5095600;28;20263;-72
2023/08/18 13:58:09;;;;;;;;;;;23.90;90.60;;;;;;5096402;28;20391;-71
2023/08/18 14:00:35;;;;;;;;;;;23.90;90.60;;;;;;5096380;28;19916;-71
2023/08/18 14:03:00;;;;;;;;;;;23.90;90.60;;;;;;5096605;28;19908;-72
2023/08/18 14:05:25;;;;;;;;;;;23.90;90.60;;;;;;5096386;28;20274;-70
2023/08/18 14:07:51;;;;;;;;;;;23.90;90.60;;;;;;5095217;28;20006;-71
2023/08/18 14:10:16;;;;;;;;;;;23.90;90.50;;;;;;5095118;28;19916;-70